KPDC

Prairie Du Chien Municipal Airport

Prairie Du Chien, Wisconsin, USA
METAR KPDC 180155Z AUTO 00000KT 10SM BKN120 23/20 A3001 RMK AO2 T02270197
Observed Flight Rules
Aug-18 @ 01:55 UTC (33 minutes ago) Visual Flight Rules
Visibility Clouds
10 miles
  • Broken at 12,000' AGL
Temperatures Readings
Current 23°C / 73°F
Dewpoint 20°C / 68°F
Humidity 83%
Altimeter 30.01" Hg
Pressure 1016 hPa
Elevation 201
METAR KPDC 180155Z AUTO 00000KT 10SM BKN120 23/20 A3001 RMK AO2 T02270197
Observed Flight Rules
Aug-18 @ 01:55 UTC
(33 minutes ago)
VFR
Clouds
  • Broken at 12,000' AGL
Temperature Dewpoint
23°C / 73°F 20°C / 68°F
Humidity Altimeter Pressure
83% 30.01" Hg 1016 hPa